Time;durP1;ratioP1;P1;durP2;ratioP2;P2;SDS_P1;SDS_P2;PMS_P1;PMS_P2;Temp;Humidity;BMP_temperature;BMP_pressure;BME280_temperature;BME280_humidity;BME280_pressure;Samples;Min_cycle;Max_cycle;Signal;HPM_P1;HPM_P2
2021/12/31 00:03:46;;;;;;;23.08;11.50;;;;;;;12.02;100.00;101114.63;20909885;28;20465;-83
2021/12/31 00:13:47;;;;;;;15.57;7.55;;;;;;;11.99;100.00;101106.81;20892294;28;20422;-84
2021/12/31 00:23:49;;;;;;;13.98;6.68;;;;;;;11.93;100.00;101106.88;20909952;28;20249;-84
2021/12/31 00:33:50;;;;;;;22.15;11.45;;;;;;;11.83;100.00;101115.69;20891591;28;20502;-84
2021/12/31 00:43:52;;;;;;;18.58;9.68;;;;;;;11.66;100.00;101107.09;20894342;28;20449;-84
2021/12/31 00:53:53;;;;;;;5.80;3.10;;;;;;;11.36;100.00;101108.22;20897193;28;20049;-85
2021/12/31 01:03:55;;;;;;;6.13;3.40;;;;;;;11.15;100.00;101104.00;20914610;28;20099;-83
2021/12/31 01:14:01;;;;;;;9.38;3.55;;;;;;;11.19;100.00;101116.19;20888294;28;20099;-83
2021/12/31 01:24:02;;;;;;;7.45;3.50;;;;;;;11.28;100.00;101116.13;20905594;28;20084;-84
2021/12/31 01:34:04;;;;;;;8.32;3.80;;;;;;;11.37;100.00;101100.34;20903417;28;20053;-84
2021/12/31 01:44:06;;;;;;;7.35;3.30;;;;;;;11.35;100.00;101104.72;20904731;28;20445;-84
2021/12/31 01:54:08;;;;;;;8.98;3.80;;;;;;;11.34;100.00;101110.84;20891643;28;20049;-84
2021/12/31 02:04:09;;;;;;;7.72;3.72;;;;;;;11.02;100.00;101113.72;20920293;28;20056;-84
2021/12/31 02:14:11;;;;;;;8.20;4.53;;;;;;;10.77;100.00;101105.09;20929005;28;20052;-84
2021/12/31 02:24:13;;;;;;;9.82;4.75;;;;;;;10.58;100.00;101109.53;20901634;28;20045;-83
2021/12/31 02:34:15;;;;;;;10.70;5.10;;;;;;;10.39;100.00;101100.88;20900857;28;20550;-83
2021/12/31 02:44:16;;;;;;;10.77;5.47;;;;;;;10.21;100.00;101095.72;20899876;28;20053;-84
2021/12/31 02:54:20;;;;;;;11.65;5.97;;;;;;;10.07;100.00;101102.72;20900372;28;20399;-83
2021/12/31 03:04:24;;;;;;;12.05;6.45;;;;;;;9.96;100.00;101115.81;20903813;28;20063;-84
2021/12/31 03:14:29;;;;;;;12.82;6.45;;;;;;;9.92;100.00;101117.59;20926383;28;20494;-84
2021/12/31 03:24:31;;;;;;;13.55;7.47;;;;;;;9.85;100.00;101112.34;20903535;28;20206;-83
2021/12/31 03:34:32;;;;;;;15.13;7.15;;;;;;;9.79;100.00;101128.94;20914280;28;20048;-84
2021/12/31 03:44:34;;;;;;;12.40;7.97;;;;;;;9.73;100.00;101124.56;20898312;28;20049;-82
2021/12/31 03:54:35;;;;;;;13.15;6.40;;;;;;;9.64;100.00;101108.03;20911430;28;20045;-84
2021/12/31 04:04:37;;;;;;;14.30;7.53;;;;;;;9.55;100.00;101108.03;20892851;28;20045;-84
2021/12/31 04:14:38;;;;;;;13.95;7.10;;;;;;;9.44;100.00;101101.06;20909383;28;20095;-83
2021/12/31 04:34:44;;;;;;;16.30;7.40;;;;;;;9.74;100.00;101089.69;20915163;28;20453;-84
2021/12/31 04:44:45;;;;;;;14.13;7.03;;;;;;;9.74;100.00;101084.47;20890086;28;20151;-83
2021/12/31 04:54:47;;;;;;;12.60;6.43;;;;;;;9.52;100.00;101074.91;20890433;28;20552;-84
2021/12/31 05:04:48;;;;;;;13.77;6.88;;;;;;;9.31;100.00;101075.78;20887621;28;20115;-84
2021/12/31 05:14:50;;;;;;;14.45;7.82;;;;;;;9.11;100.00;101062.72;20887493;28;20102;-84
2021/12/31 05:24:51;;;;;;;16.17;8.00;;;;;;;8.95;100.00;101064.41;20908293;28;20068;-84
2021/12/31 05:34:54;;;;;;;15.10;8.35;;;;;;;8.84;100.00;101062.66;20898612;28;20045;-83
2021/12/31 05:44:55;;;;;;;15.98;8.57;;;;;;;8.70;100.00;101057.41;20886839;28;20045;-83
2021/12/31 05:54:57;;;;;;;15.63;8.38;;;;;;;8.60;100.00;101055.63;20885624;28;20049;-84
2021/12/31 06:04:58;;;;;;;18.60;9.35;;;;;;;8.44;100.00;101062.56;20885061;28;20036;-84
2021/12/31 06:15:03;;;;;;;18.98;10.18;;;;;;;8.32;100.00;101070.28;20885682;28;20052;-82
2021/12/31 06:25:05;;;;;;;19.85;10.15;;;;;;;8.15;100.00;101089.34;20908517;28;20079;-83
2021/12/31 06:35:07;;;;;;;17.83;9.18;;;;;;;7.92;100.00;101096.19;20886423;28;20041;-83
2021/12/31 06:45:09;;;;;;;19.48;11.07;;;;;;;7.75;100.00;101098.66;20935387;28;20045;-83
2021/12/31 06:55:10;;;;;;;17.33;9.55;;;;;;;7.53;100.00;101089.81;20916817;28;20067;-83
2021/12/31 07:05:12;;;;;;;20.38;9.55;;;;;;;7.50;100.00;101088.91;20898486;28;20045;-82
2021/12/31 07:15:14;;;;;;;17.58;9.98;;;;;;;7.67;100.00;101097.75;20917782;28;20049;-83
2021/12/31 07:25:15;;;;;;;29.13;15.40;;;;;;;7.96;100.00;101083.16;20960266;28;20057;-84
2021/12/31 07:35:17;;;;;;;28.30;14.75;;;;;;;8.11;100.00;101081.50;20910463;28;20498;-84
2021/12/31 07:45:19;;;;;;;37.97;17.13;;;;;;;8.25;100.00;101095.50;20924762;28;20102;-83
2021/12/31 07:55:20;;;;;;;33.92;17.60;;;;;;;8.37;100.00;101099.91;20933712;28;20087;-83
2021/12/31 08:05:23;;;;;;;34.97;19.25;;;;;;;8.43;100.00;101097.31;20932122;28;20048;-83
2021/12/31 08:15:25;;;;;;;30.90;17.48;;;;;;;8.50;100.00;101093.88;20984561;28;20040;-83
2021/12/31 08:25:27;;;;;;;31.30;16.60;;;;;;;8.64;100.00;101086.97;21004682;28;20071;-83
2021/12/31 08:35:29;;;;;;;31.58;16.33;;;;;;;8.82;100.00;101078.34;20982943;28;20635;-83
2021/12/31 08:45:31;;;;;;;28.10;15.07;;;;;;;8.90;100.00;101076.59;20981066;28;20448;-83
2021/12/31 08:55:33;;;;;;;25.20;13.63;;;;;;;8.97;100.00;101080.97;20993222;28;20124;-83
2021/12/31 09:05:35;;;;;;;26.05;13.68;;;;;;;9.17;100.00;101080.13;21019983;28;20520;-83
2021/12/31 09:15:36;;;;;;;22.75;12.95;;;;;;;9.23;100.00;101087.97;20976483;28;20161;-83
2021/12/31 09:25:38;;;;;;;19.02;11.20;;;;;;;9.38;100.00;101093.19;20980141;28;20051;-83
2021/12/31 09:35:41;;;;;;;31.48;16.45;;;;;;;9.46;100.00;101082.75;20991450;28;20079;-82
2021/12/31 09:45:45;;;;;;;17.63;11.57;;;;;;;9.50;100.00;101090.59;20991354;28;20482;-83
2021/12/31 09:55:54;;;;;;;19.08;12.10;;;;;;;9.67;100.00;101072.25;21002874;28;20070;-84
2021/12/31 10:06:15;;;;;;;16.30;10.70;;;;;;;9.84;100.00;101048.72;20998306;28;20071;-84
2021/12/31 10:16:27;;;;;;;15.27;9.40;;;;;;;9.86;100.00;101054.78;20995915;28;20041;-83
2021/12/31 10:26:30;;;;;;;14.10;9.38;;;;;;;10.08;100.00;101023.34;21003651;28;20473;-83
2021/12/31 10:36:38;;;;;;;14.18;8.50;;;;;;;10.29;100.00;101031.13;20997726;28;20070;-83
2021/12/31 10:46:41;;;;;;;10.85;7.10;;;;;;;10.58;100.00;101044.06;20994294;28;20182;-83
2021/12/31 10:56:43;;;;;;;10.73;5.05;;;;;;;10.63;100.00;101046.69;20992088;28;20040;-83
2021/12/31 11:06:45;;;;;;;10.70;5.10;;;;;;;10.96;100.00;101025.50;21009254;28;20040;-83
2021/12/31 11:16:46;;;;;;;11.18;6.45;;;;;;;11.32;100.00;101056.69;20952323;28;20049;-84
2021/12/31 11:26:48;;;;;;;8.27;4.97;;;;;;;11.08;100.00;101073.47;20918281;28;20076;-83
2021/12/31 11:36:52;;;;;;;8.30;4.78;;;;;;;10.82;100.00;101092.84;20902109;28;20098;-83
2021/12/31 11:47:13;;;;;;;8.97;5.87;;;;;;;11.01;100.00;101085.75;20904247;28;20387;-83
2021/12/31 11:57:27;;;;;;;8.68;5.13;;;;;;;11.12;100.00;101062.09;20920780;28;20564;-83
2021/12/31 12:07:37;;;;;;;10.63;6.37;;;;;;;11.24;100.00;101025.28;20921098;28;20045;-83
2021/12/31 12:17:43;;;;;;;11.32;5.25;;;;;;;11.52;100.00;101026.78;20916745;28;20143;-83
2021/12/31 12:27:52;;;;;;;7.30;4.25;;;;;;;11.70;100.00;101012.63;20928684;28;20049;-83
2021/12/31 12:37:58;;;;;;;8.82;4.65;;;;;;;11.70;100.00;100988.16;20893348;28;20445;-83
2021/12/31 12:48:00;;;;;;;9.00;4.82;;;;;;;11.66;100.00;100979.44;20892624;28;20052;-84
2021/12/31 12:58:02;;;;;;;7.60;4.03;;;;;;;11.89;98.48;100958.22;20892444;28;20056;-83
2021/12/31 13:08:05;;;;;;;7.00;3.78;;;;;;;11.88;99.89;100955.59;20890374;28;20048;-84
2021/12/31 13:18:07;;;;;;;10.75;5.53;;;;;;;11.91;99.47;100927.56;20909117;28;20123;-83
2021/12/31 13:28:19;;;;;;;13.45;6.18;;;;;;;12.04;99.75;100934.41;20891170;28;20049;-83
2021/12/31 13:38:20;;;;;;;12.43;6.22;;;;;;;12.14;99.41;100934.28;20943576;28;20072;-83
2021/12/31 13:48:21;;;;;;;7.05;3.38;;;;;;;12.17;99.01;100989.34;20887934;28;20533;-83
2021/12/31 13:58:27;;;;;;;4.82;2.25;;;;;;;12.47;96.06;101012.59;20906814;28;20114;-83
2021/12/31 14:18:39;;;;;;;7.97;3.65;;;;;;;12.38;94.91;100944.44;20935645;28;20049;-83
2021/12/31 14:28:43;;;;;;;6.88;2.85;;;;;;;12.17;95.72;100932.50;20913468;28;20482;-83
2021/12/31 14:38:44;;;;;;;5.35;2.80;;;;;;;11.93;97.38;100952.06;20923964;28;20108;-83
2021/12/31 14:48:46;;;;;;;6.95;2.88;;;;;;;11.89;97.35;100960.84;20937985;28;20049;-83
2021/12/31 14:58:48;;;;;;;7.68;3.58;;;;;;;11.68;99.36;100974.16;20935254;28;20430;-83
2021/12/31 15:08:52;;;;;;;7.95;3.80;;;;;;;11.46;100.00;100973.53;20908045;28;20067;-83
2021/12/31 15:18:53;;;;;;;7.90;3.63;;;;;;;11.30;100.00;100999.88;20978984;28;20118;-83
2021/12/31 15:28:55;;;;;;;6.75;3.70;;;;;;;11.18;100.00;101000.00;20991181;28;20071;-83
2021/12/31 15:38:56;;;;;;;7.22;3.90;;;;;;;11.04;100.00;101026.31;21028005;28;20045;-83
2021/12/31 15:48:58;;;;;;;6.70;4.18;;;;;;;10.97;100.00;101063.94;21012936;28;20070;-83
2021/12/31 15:59:00;;;;;;;6.93;4.25;;;;;;;10.80;100.00;101057.94;21020680;28;20609;-83
2021/12/31 16:09:02;;;;;;;9.77;4.20;;;;;;;10.59;100.00;101053.69;20992228;28;20118;-83
2021/12/31 16:19:04;;;;;;;8.52;4.55;;;;;;;10.49;100.00;101068.59;20978354;28;20105;-83
2021/12/31 16:29:05;;;;;;;9.18;5.38;;;;;;;10.40;100.00;101086.94;20977752;28;20550;-83
2021/12/31 16:39:07;;;;;;;9.02;4.75;;;;;;;10.34;100.00;101107.03;20990494;28;20040;-83
2021/12/31 16:49:08;;;;;;;7.40;5.35;;;;;;;10.31;100.00;101118.41;20986192;28;20098;-84
2021/12/31 16:59:10;;;;;;;9.48;5.75;;;;;;;10.16;100.00;101158.53;21010521;28;20658;-84
2021/12/31 17:09:12;;;;;;;8.73;4.65;;;;;;;9.90;100.00;101163.78;21003572;28;20045;-84
2021/12/31 17:19:14;;;;;;;9.13;5.07;;;;;;;9.85;100.00;101189.06;20981113;28;20051;-84
2021/12/31 17:29:16;;;;;;;17.77;10.02;;;;;;;9.78;100.00;101179.50;20979575;28;20070;-84
2021/12/31 17:39:17;;;;;;;21.42;11.70;;;;;;;9.58;100.00;101171.66;20994171;28;20067;-84
2021/12/31 17:49:19;;;;;;;15.50;8.90;;;;;;;9.59;100.00;101180.34;20995296;28;20049;-84
2021/12/31 17:59:20;;;;;;;11.20;6.47;;;;;;;9.70;100.00;101194.31;20983852;28;20041;-84
2021/12/31 18:09:22;;;;;;;10.95;5.78;;;;;;;9.61;100.00;101217.81;21013547;28;20036;-84
2021/12/31 18:19:24;;;;;;;10.82;6.78;;;;;;;9.58;100.00;101223.03;20913921;28;20045;-84
2021/12/31 18:29:27;;;;;;;10.70;6.40;;;;;;;9.51;100.00;101238.72;20891804;28;20045;-84
2021/12/31 18:39:28;;;;;;;12.90;6.55;;;;;;;9.49;100.00;101240.47;20912725;28;20045;-84
2021/12/31 18:49:31;;;;;;;10.30;6.28;;;;;;;9.55;100.00;101264.88;20904737;28;20045;-82
2021/12/31 18:59:32;;;;;;;9.05;5.45;;;;;;;9.60;100.00;101274.47;20909050;28;20107;-82
2021/12/31 19:09:34;;;;;;;9.00;5.45;;;;;;;9.60;100.00;101304.97;20909812;28;20045;-82
2021/12/31 19:19:36;;;;;;;9.10;5.72;;;;;;;9.38;100.00;101343.22;20927232;28;20053;-83
2021/12/31 19:29:41;;;;;;;9.68;6.13;;;;;;;9.05;100.00;101372.66;20920716;28;20052;-82
2021/12/31 19:39:42;;;;;;;11.20;7.03;;;;;;;8.70;100.00;101383.75;20902533;28;20542;-82
2021/12/31 19:49:44;;;;;;;11.90;6.53;;;;;;;8.57;100.00;101389.72;20919302;28;20053;-82
2021/12/31 19:59:45;;;;;;;15.80;8.95;;;;;;;8.62;100.00;101408.91;20900599;28;20045;-82
2021/12/31 20:09:47;;;;;;;17.73;11.90;;;;;;;8.85;100.00;101401.28;20907140;28;20107;-82
2021/12/31 20:19:48;;;;;;;18.08;11.77;;;;;;;9.01;100.00;101397.94;20908073;28;20067;-81
2021/12/31 20:29:50;;;;;;;18.88;12.20;;;;;;;9.04;100.00;101405.75;20937663;28;20037;-83
2021/12/31 20:39:51;;;;;;;19.52;11.18;;;;;;;9.09;100.00;101411.88;20914930;28;20049;-83
2021/12/31 20:49:53;;;;;;;16.20;9.30;;;;;;;8.90;100.00;101412.63;20905964;28;20049;-81
2021/12/31 20:59:55;;;;;;;23.60;13.45;;;;;;;8.83;100.00;101409.09;20921612;28;20099;-83
2021/12/31 21:09:56;;;;;;;14.25;8.18;;;;;;;8.83;100.00;101419.56;20918092;28;20041;-82
2021/12/31 21:19:58;;;;;;;15.35;10.23;;;;;;;9.15;100.00;101431.94;20898017;28;20557;-82
2021/12/31 21:30:01;;;;;;;12.45;8.15;;;;;;;9.46;100.00;101426.06;20896916;28;20052;-82
2021/12/31 21:40:06;;;;;;;56.88;30.85;;;;;;;9.69;100.00;101430.53;20926633;28;20036;-83
2021/12/31 21:50:10;;;;;;;32.53;17.65;;;;;;;9.80;100.00;101444.50;20894669;28;20453;-82
2021/12/31 22:00:14;;;;;;;6.80;4.10;;;;;;;9.89;100.00;101434.09;20891414;28;20072;-83
2021/12/31 22:10:16;;;;;;;6.50;3.77;;;;;;;10.07;100.00;101440.25;20890532;28;20041;-82
2021/12/31 22:20:18;;;;;;;7.38;4.05;;;;;;;10.12;100.00;101434.16;20893798;28;20049;-82
2021/12/31 22:30:20;;;;;;;15.70;11.80;;;;;;;10.12;100.00;101441.16;20945139;28;20086;-83
2021/12/31 22:40:21;;;;;;;13.45;9.40;;;;;;;10.14;100.00;101434.16;20925459;28;20235;-83
2021/12/31 22:50:23;;;;;;;15.25;9.50;;;;;;;10.10;100.00;101438.50;20968236;28;20560;-82
2021/12/31 23:01:02;;;;;;;8.73;5.57;;;;;;;9.99;100.00;101451.56;20911537;28;20045;-82
2021/12/31 23:11:04;;;;;;;219.90;170.35;;;;;;;9.96;100.00;101466.38;20897090;28;20053;-82
2021/12/31 23:21:06;;;;;;;323.23;227.02;;;;;;;9.96;100.00;101477.69;20906239;28;20537;-82
2021/12/31 23:31:08;;;;;;;166.82;112.57;;;;;;;9.95;100.00;101470.72;20919556;28;20072;-82
2021/12/31 23:41:15;;;;;;;61.08;37.00;;;;;;;9.98;100.00;101481.22;20921662;28;20041;-82
2021/12/31 23:51:18;;;;;;;17.95;11.07;;;;;;;9.97;100.00;101489.94;20904825;28;20045;-82
